Online since October of 2007


Active alerts


No alerts

Bigbaywx more information Bigbaywx


mount mesnard more information Mount Mesnard


visit our other weather sites:

Template documentation
and downloads

And another site


CBI


nearby metar reports

   
KSAW - Sawyer, Michigan
updated: Aug 21 2019 5:38 am
clear  
clear  
   wind: nnw 8.1 mph
wind: nnw 8.1 mph
temperature: 57.2°F
dew point: 55.4°F
humidity: 94%
barometer: 29.92 inHg
clouds: clear
visibility: 10 mi
cloud details: clear
KSAW 210938Z AUTO 33007KT 10SM CLR 14/13 A2992 RMK AO2 T01380130
KESC - Escanaba, Michigan
updated: Aug 21 2019 4:56 am
clear  
clear  
   wind: north 4.6 mph
wind: north 4.6 mph
temperature: 62.6°F
dew point: 60.8°F
humidity: 94%
barometer: 29.91 inHg
clouds: clear
visibility: 10 mi
cloud details: clear
KESC 210856Z AUTO 36004KT 10SM CLR 17/16 A2991 RMK AO2 SLP129 T01720156 53001
KIMT - Iron Mountain, MI
updated: Aug 21 2019 4:54 am
few clouds  
few clouds  
   wind: nw 6.9 mph
wind: nw 6.9 mph
temperature: 62.6°F
dew point: 59°F
humidity: 88%
barometer: 29.93 inHg
clouds: few clouds
visibility: 10 mi
cloud details: few clouds 2743 m
KIMT 210854Z AUTO 32006KT 10SM FEW090 17/15 A2993 RMK AO2 SLP131 T01720150 58001
KGRB - Green Bay, WI
updated: Aug 21 2019 4:53 am
mostly cloudy  
mostly cloudy  
   wind: ssw 3.5 mph
wind: ssw 3.5 mph
temperature: 64.4°F
dew point: 64.4°F
humidity: 100%
barometer: 29.92 inHg
clouds: mostly cloudy
visibility: 10 mi
cloud details: mostly cloudy 2743 m
KGRB 210853Z AUTO 20003KT 10SM BKN090 18/18 A2992 RMK AO2 SLP129 T01830178 56005
KDET - Detroit, MI
updated: Aug 21 2019 4:53 am
clear  
clear  
   wind: calm
wind: calm
temperature: 71.6°F
dew point: 69.8°F
humidity: 94%
barometer: 29.91 inHg
clouds: clear
visibility: 7 mi
cloud details: clear
KDET 210853Z 00000KT 7SM CLR 22/21 A2991 RMK AO2 SLP122 T02170211 56010 $
 

script developed by  Saratoga-weather.org adapted for the template by  Weerstation Leuven

you find our weather info also at:

Weather Underground

midwestern weather network

WeatherlinkIP

Citizen Weather Observer Program (CWOP)

equipment we use:

weather-station
Davis VP2

weather-program
Davis Weatherlink.Com

Davis VP2

Davis Weatherlink.Com